createdAt,value
2017-11-15T00:01:07.114Z,22.30
2017-11-15T00:03:34.537Z,23.20
2017-11-15T00:06:02.740Z,24.97
2017-11-15T00:08:34.039Z,23.57
2017-11-15T00:11:01.487Z,26.23
2017-11-15T00:13:28.921Z,23.17
2017-11-15T00:15:56.366Z,23.63
2017-11-15T00:18:23.800Z,23.97
2017-11-15T00:20:51.231Z,23.70
2017-11-15T00:23:19.433Z,21.77
2017-11-15T00:25:46.857Z,23.87
2017-11-15T00:28:14.712Z,22.40
2017-11-15T00:30:42.150Z,20.57
2017-11-15T00:33:09.584Z,19.20
2017-11-15T00:35:37.024Z,21.80
2017-11-15T00:38:04.463Z,25.03
2017-11-15T00:40:39.566Z,24.90
2017-11-15T00:43:08.197Z,23.80
2017-11-15T00:45:36.398Z,23.40
2017-11-15T00:48:03.822Z,26.07
2017-11-15T00:50:32.044Z,23.70
2017-11-15T00:52:59.485Z,25.40
2017-11-15T00:55:26.906Z,25.27
2017-11-15T00:57:55.112Z,22.00
2017-11-15T01:00:22.559Z,22.63
2017-11-15T01:02:53.963Z,22.90
2017-11-15T01:05:21.390Z,22.60
2017-11-15T01:07:49.337Z,22.43
2017-11-15T01:10:16.806Z,23.03
2017-11-15T01:12:44.222Z,21.03
2017-11-15T01:15:12.428Z,22.07
2017-11-15T01:17:39.868Z,20.30
2017-11-15T01:20:08.063Z,23.17
2017-11-15T01:22:35.504Z,22.03
2017-11-15T01:25:03.506Z,21.00
2017-11-15T01:27:33.905Z,20.57
2017-11-15T01:30:02.090Z,21.33
2017-11-15T01:32:29.537Z,19.43
2017-11-15T01:34:56.955Z,21.07
2017-11-15T01:37:24.451Z,19.07
2017-11-15T01:39:53.250Z,18.13
2017-11-15T01:42:20.684Z,20.87
2017-11-15T01:44:48.881Z,18.77
2017-11-15T01:47:16.331Z,23.40
2017-11-15T01:49:43.761Z,19.23
2017-11-15T01:52:12.519Z,19.63
2017-11-15T01:54:39.949Z,22.93
2017-11-15T01:57:07.387Z,21.43
2017-11-15T01:59:34.813Z,21.90
2017-11-15T02:02:02.245Z,22.20
2017-11-15T02:04:29.672Z,21.17
2017-11-15T02:06:57.113Z,18.23
2017-11-15T02:09:24.559Z,19.43
2017-11-15T02:11:52.785Z,19.80
2017-11-15T02:14:20.220Z,19.50
2017-11-15T02:16:48.337Z,19.30
2017-11-15T02:19:15.774Z,19.97
2017-11-15T02:21:43.201Z,18.10
2017-11-15T02:24:10.625Z,19.30
2017-11-15T02:26:38.833Z,20.53
2017-11-15T02:29:06.279Z,19.03
2017-11-15T02:31:34.486Z,19.93
2017-11-15T02:34:02.173Z,19.67
2017-11-15T02:36:32.069Z,22.60
2017-11-15T02:38:59.504Z,22.20
2017-11-15T02:41:26.925Z,19.70
2017-11-15T02:43:55.388Z,20.30
2017-11-15T02:46:22.806Z,19.93
2017-11-15T02:48:50.258Z,23.13
2017-11-15T02:51:17.686Z,21.10
2017-11-15T02:53:46.951Z,21.17
2017-11-15T02:56:14.382Z,26.40
2017-11-15T02:58:41.826Z,26.97
2017-11-15T03:01:09.257Z,26.40
2017-11-15T03:03:36.967Z,27.07
2017-11-15T03:06:04.385Z,27.07
2017-11-15T03:08:32.505Z,27.50
2017-11-15T03:11:00.577Z,27.77
2017-11-15T03:13:28.022Z,32.37
2017-11-15T03:15:55.451Z,31.73
2017-11-15T03:18:22.913Z,28.17
2017-11-15T03:20:50.344Z,28.70
2017-11-15T03:23:17.786Z,29.70
2017-11-15T03:25:46.261Z,29.17
2017-11-15T03:28:13.671Z,29.63
2017-11-15T03:30:41.126Z,30.27
2017-11-15T03:33:08.538Z,27.23
2017-11-15T03:35:36.739Z,28.80
2017-11-15T03:38:05.714Z,29.03
2017-11-15T03:40:33.910Z,29.20
2017-11-15T03:43:01.350Z,29.57
2017-11-15T03:45:28.789Z,29.70
2017-11-15T03:47:56.986Z,30.30
2017-11-15T03:50:24.945Z,30.83
2017-11-15T03:52:53.880Z,30.73
2017-11-15T03:55:21.326Z,29.53
2017-11-15T03:57:48.762Z,28.07
2017-11-15T04:00:16.203Z,28.30
2017-11-15T04:02:44.398Z,29.07
2017-11-15T04:05:11.847Z,30.57
2017-11-15T04:07:39.276Z,29.30
2017-11-15T04:10:06.710Z,28.23
2017-11-15T04:12:34.145Z,26.07
2017-11-15T04:15:02.268Z,25.37
2017-11-15T04:17:30.877Z,26.27
2017-11-15T04:19:58.660Z,23.93
2017-11-15T04:22:26.189Z,24.97
2017-11-15T04:24:54.396Z,25.13
2017-11-15T04:27:21.850Z,24.17
2017-11-15T04:29:49.278Z,23.60
2017-11-15T04:32:17.487Z,23.20
2017-11-15T04:34:44.938Z,24.17
2017-11-15T04:37:12.357Z,23.17
2017-11-15T04:39:40.564Z,24.87
2017-11-15T04:42:08.011Z,22.33
2017-11-15T04:44:35.441Z,21.07
2017-11-15T04:47:04.485Z,22.83
2017-11-15T04:49:31.929Z,25.37
2017-11-15T04:51:59.361Z,24.63
2017-11-15T04:54:27.563Z,25.03
2017-11-15T04:56:55.010Z,22.93
2017-11-15T04:59:22.897Z,25.03
2017-11-15T05:01:50.754Z,25.30
2017-11-15T05:04:18.191Z,23.30
2017-11-15T05:06:45.631Z,24.77
2017-11-15T05:09:13.831Z,27.87
2017-11-15T05:11:41.262Z,21.20
2017-11-15T05:14:09.469Z,20.27
2017-11-15T05:16:39.471Z,22.97
2017-11-15T05:19:06.894Z,20.70
2017-11-15T05:21:34.753Z,20.37
2017-11-15T05:24:02.192Z,22.73
2017-11-15T05:26:29.698Z,23.87
2017-11-15T05:28:58.142Z,21.70
2017-11-15T05:31:25.577Z,22.17
2017-11-15T05:33:54.759Z,22.50
2017-11-15T05:36:22.186Z,25.10
2017-11-15T05:38:50.398Z,18.13
2017-11-15T05:41:17.813Z,14.97
2017-11-15T05:43:46.018Z,22.67
2017-11-15T05:46:14.274Z,19.10
2017-11-15T05:48:42.481Z,22.00
2017-11-15T05:51:09.918Z,22.93
2017-11-15T05:53:37.361Z,21.63
2017-11-15T05:56:06.157Z,20.80
2017-11-15T05:58:34.151Z,18.50
2017-11-15T06:01:01.997Z,23.10
2017-11-15T06:03:29.437Z,23.73
2017-11-15T06:05:57.637Z,25.87
2017-11-15T06:08:25.627Z,24.50
2017-11-15T06:10:53.095Z,26.87
2017-11-15T06:13:20.540Z,22.00
2017-11-15T06:15:48.762Z,25.73
2017-11-15T06:18:16.219Z,26.00
2017-11-15T06:20:43.616Z,24.40
2017-11-15T06:23:11.048Z,23.83
2017-11-15T06:25:46.409Z,20.97
2017-11-15T06:28:14.513Z,20.27
2017-11-15T06:30:42.175Z,21.50
2017-11-15T06:33:09.627Z,23.33
2017-11-15T06:35:37.779Z,22.77
2017-11-15T06:38:05.346Z,22.83
2017-11-15T06:40:32.779Z,25.20
2017-11-15T06:43:00.222Z,27.23
2017-11-15T06:45:28.426Z,22.43
2017-11-15T06:47:55.849Z,23.33
2017-11-15T06:50:24.051Z,23.27
2017-11-15T06:52:52.629Z,21.50
2017-11-15T06:55:20.065Z,24.10
2017-11-15T06:57:48.260Z,19.17
2017-11-15T07:00:15.701Z,21.33
2017-11-15T07:02:43.907Z,20.27
2017-11-15T07:05:11.330Z,17.70
2017-11-15T07:07:39.529Z,20.83
2017-11-15T07:10:07.003Z,17.47
2017-11-15T07:12:34.413Z,15.90
2017-11-15T07:15:03.214Z,19.50
2017-11-15T07:17:31.413Z,13.03
2017-11-15T07:19:58.862Z,21.23
2017-11-15T07:22:26.288Z,15.10
2017-11-15T07:24:53.721Z,16.47
2017-11-15T07:27:21.152Z,12.47
2017-11-15T07:29:48.814Z,14.60
2017-11-15T07:32:16.240Z,15.57
2017-11-15T07:34:43.673Z,13.20
2017-11-15T07:37:18.945Z,16.60
2017-11-15T07:39:46.374Z,19.97
2017-11-15T07:42:14.579Z,18.33
2017-11-15T07:44:42.006Z,14.97
2017-11-15T07:47:10.224Z,16.03
2017-11-15T07:49:37.642Z,15.47
2017-11-15T07:52:05.853Z,15.60
2017-11-15T07:54:33.350Z,13.20
2017-11-15T07:57:00.785Z,15.07
2017-11-15T07:59:28.223Z,14.87
2017-11-15T08:01:58.241Z,13.80
2017-11-15T08:04:25.687Z,10.80
2017-11-15T08:06:53.310Z,10.33
2017-11-15T08:09:20.738Z,12.33
2017-11-15T08:11:49.110Z,11.67
2017-11-15T08:14:16.552Z,11.60
2017-11-15T08:16:44.246Z,11.30
2017-11-15T08:19:11.658Z,14.00
2017-11-15T08:21:39.104Z,13.53
2017-11-15T08:24:07.863Z,15.00
2017-11-15T08:26:35.285Z,14.90
2017-11-15T08:29:02.709Z,16.87
2017-11-15T08:31:30.160Z,17.17
2017-11-15T08:33:59.006Z,19.13
2017-11-15T08:36:26.420Z,18.97
2017-11-15T08:38:53.861Z,16.87
2017-11-15T08:41:22.049Z,16.70
2017-11-15T08:43:49.494Z,17.93
2017-11-15T08:46:17.678Z,18.07
2017-11-15T08:48:45.128Z,18.37
2017-11-15T08:51:13.321Z,18.97
2017-11-15T08:53:40.756Z,19.63
2017-11-15T08:56:08.947Z,20.40
2017-11-15T08:58:36.385Z,21.30
2017-11-15T09:01:04.586Z,21.57
2017-11-15T09:03:32.026Z,19.97
2017-11-15T09:05:59.465Z,21.43
2017-11-15T09:08:27.657Z,20.57
2017-11-15T09:10:55.097Z,21.93
2017-11-15T09:13:23.294Z,21.30
2017-11-15T09:15:50.724Z,20.63
2017-11-15T09:18:18.921Z,19.03
2017-11-15T09:20:46.355Z,20.17
2017-11-15T09:23:14.569Z,19.70
2017-11-15T09:25:41.994Z,21.47
2017-11-15T09:28:10.201Z,22.03
2017-11-15T09:30:37.639Z,21.80
2017-11-15T09:33:06.143Z,21.17
2017-11-15T09:35:33.601Z,19.53
2017-11-15T09:38:01.025Z,18.73
2017-11-15T09:40:29.214Z,16.13
2017-11-15T09:42:56.669Z,17.80
2017-11-15T09:45:24.130Z,17.73
2017-11-15T09:47:51.553Z,15.83
2017-11-15T09:50:21.562Z,16.60
2017-11-15T09:52:48.990Z,18.60
2017-11-15T09:55:16.857Z,20.47
2017-11-15T09:57:44.282Z,20.20
2017-11-15T10:00:11.719Z,20.03
2017-11-15T10:02:39.910Z,21.70
2017-11-15T10:05:07.354Z,22.00
2017-11-15T10:07:35.558Z,19.93
2017-11-15T10:10:02.983Z,19.50
2017-11-15T10:12:31.583Z,20.77
2017-11-15T10:14:59.015Z,20.47
2017-11-15T10:17:27.844Z,19.67
2017-11-15T10:19:55.282Z,18.60
2017-11-15T10:22:22.709Z,16.63
2017-11-15T10:24:50.542Z,19.37
2017-11-15T10:27:17.974Z,18.83
2017-11-15T10:29:45.411Z,19.87
2017-11-15T10:32:13.617Z,20.07
2017-11-15T10:34:41.365Z,15.23
2017-11-15T10:37:08.794Z,14.17
2017-11-15T10:39:37.007Z,17.63
2017-11-15T10:42:04.448Z,20.30
2017-11-15T10:44:31.877Z,16.40
2017-11-15T10:46:59.303Z,20.13
2017-11-15T10:49:26.739Z,20.10
2017-11-15T10:51:54.422Z,21.70
2017-11-15T10:54:21.860Z,19.47
2017-11-15T10:56:49.314Z,19.97
2017-11-15T10:59:16.749Z,19.83
2017-11-15T11:01:44.188Z,20.37
2017-11-15T11:04:12.408Z,22.43
2017-11-15T11:06:39.842Z,21.40
2017-11-15T11:09:07.274Z,22.77
2017-11-15T11:11:35.483Z,23.43
2017-11-15T11:14:02.906Z,23.87
2017-11-15T11:16:31.118Z,22.53
2017-11-15T11:18:59.135Z,21.70
2017-11-15T11:21:26.561Z,23.17
2017-11-15T11:23:59.750Z,19.83
2017-11-15T11:26:27.321Z,18.80
2017-11-15T11:28:55.474Z,18.43
2017-11-15T11:31:23.331Z,21.73
2017-11-15T11:33:50.757Z,20.93
2017-11-15T11:36:18.953Z,21.50
2017-11-15T11:38:46.390Z,23.63
2017-11-15T11:41:14.602Z,20.73
2017-11-15T11:43:42.039Z,23.80
2017-11-15T11:46:09.474Z,22.63
2017-11-15T11:48:37.661Z,23.53
2017-11-15T11:51:06.183Z,22.47
2017-11-15T11:53:34.605Z,23.37
2017-11-15T11:56:02.031Z,23.77
2017-11-15T11:58:29.464Z,21.83
2017-11-15T12:00:56.893Z,22.90
2017-11-15T12:03:25.101Z,23.80
2017-11-15T12:05:52.521Z,22.00
2017-11-15T12:08:20.725Z,20.80
2017-11-15T12:10:48.156Z,19.80
2017-11-15T12:13:27.137Z,20.57
2017-11-15T12:15:54.567Z,23.47
2017-11-15T12:18:22.406Z,19.00
2017-11-15T12:20:50.613Z,21.67
2017-11-15T12:23:18.062Z,22.17
2017-11-15T12:25:45.480Z,20.17
2017-11-15T12:28:13.679Z,21.63
2017-11-15T12:30:59.805Z,19.50
2017-11-15T12:33:27.811Z,19.13
2017-11-15T12:35:55.906Z,18.87
2017-11-15T12:38:24.095Z,18.60
2017-11-15T12:40:51.532Z,18.33
2017-11-15T12:43:19.739Z,18.37
2017-11-15T12:45:47.170Z,19.10
2017-11-15T12:48:15.368Z,18.43
2017-11-15T12:50:42.829Z,19.83
2017-11-15T12:53:10.261Z,19.27
2017-11-15T12:55:37.698Z,19.63
2017-11-15T12:58:05.904Z,20.57
2017-11-15T13:00:33.333Z,17.60
2017-11-15T13:03:01.545Z,18.87
2017-11-15T13:05:28.977Z,19.63
2017-11-15T13:07:56.417Z,20.47
2017-11-15T13:10:24.689Z,17.97
2017-11-15T13:12:52.175Z,19.77
2017-11-15T13:15:19.739Z,19.43
2017-11-15T13:17:48.068Z,21.03
2017-11-15T13:20:16.379Z,20.37
2017-11-15T13:22:44.627Z,22.80
2017-11-15T13:25:12.218Z,20.93
2017-11-15T13:27:40.488Z,19.80
2017-11-15T13:30:08.866Z,21.23
2017-11-15T13:32:37.211Z,20.00
2017-11-15T13:35:05.669Z,22.03
2017-11-15T13:37:33.206Z,20.57
2017-11-15T13:40:00.798Z,21.70
2017-11-15T13:42:29.258Z,22.57
2017-11-15T13:44:56.877Z,22.93
2017-11-15T13:47:25.113Z,20.67
2017-11-15T13:49:52.565Z,21.53
2017-11-15T13:52:20.044Z,23.03
2017-11-15T13:54:47.509Z,20.57
2017-11-15T13:57:14.985Z,21.57
2017-11-15T13:59:42.450Z,20.00
2017-11-15T14:02:10.721Z,20.53
2017-11-15T14:04:38.954Z,21.43
2017-11-15T14:07:06.432Z,20.33
2017-11-15T14:09:35.644Z,21.17
2017-11-15T14:12:03.104Z,18.87
2017-11-15T14:14:30.628Z,20.13
2017-11-15T14:16:58.072Z,18.53
2017-11-15T14:19:25.529Z,21.93
2017-11-15T14:21:53.077Z,18.37
2017-11-15T14:24:20.536Z,21.20
2017-11-15T14:26:47.990Z,21.03
2017-11-15T14:29:15.435Z,20.30
2017-11-15T14:31:42.899Z,21.97
2017-11-15T14:34:10.352Z,21.17
2017-11-15T14:36:37.845Z,19.67
2017-11-15T14:39:05.315Z,19.03
2017-11-15T14:41:33.041Z,20.77
2017-11-15T14:44:00.572Z,21.03
2017-11-15T14:46:28.897Z,20.97
2017-11-15T14:48:56.343Z,20.93
2017-11-15T14:51:23.855Z,20.57
2017-11-15T14:53:52.085Z,19.93
2017-11-15T14:56:19.584Z,19.97
2017-11-15T14:58:47.080Z,22.20
2017-11-15T15:01:14.527Z,21.43
2017-11-15T15:03:42.778Z,22.83
2017-11-15T15:06:10.267Z,21.40
2017-11-15T15:08:37.747Z,23.03
2017-11-15T15:11:08.402Z,22.87
2017-11-15T15:13:35.878Z,21.43
2017-11-15T15:16:03.378Z,21.13
2017-11-15T15:18:30.864Z,22.33
2017-11-15T15:20:58.304Z,23.60
2017-11-15T15:23:29.113Z,24.43
2017-11-15T15:25:56.674Z,24.67
2017-11-15T15:28:25.009Z,27.03
2017-11-15T15:30:52.596Z,25.73
2017-11-15T15:33:20.012Z,25.33
2017-11-15T15:35:47.509Z,28.10
2017-11-15T15:38:15.801Z,27.27
2017-11-15T15:40:44.069Z,28.23
2017-11-15T15:43:12.298Z,28.67
2017-11-15T15:45:39.762Z,27.80
2017-11-15T15:48:07.274Z,28.90
2017-11-15T15:50:35.517Z,27.93
2017-11-15T15:53:02.979Z,29.03
2017-11-15T15:55:30.476Z,26.47
2017-11-15T16:00:31.947Z,28.13
2017-11-15T16:02:59.421Z,30.07
2017-11-15T16:05:26.870Z,28.03
2017-11-15T16:07:54.351Z,28.40
2017-11-15T16:10:21.850Z,27.23
2017-11-15T16:12:50.121Z,32.63
2017-11-15T16:15:18.376Z,33.00
2017-11-15T16:17:45.841Z,31.80
2017-11-15T16:20:13.328Z,29.03
2017-11-15T16:22:40.870Z,26.90
2017-11-15T16:25:09.094Z,27.43
2017-11-15T16:27:36.648Z,29.50
2017-11-15T16:30:04.132Z,30.43
2017-11-15T16:32:31.606Z,31.33
2017-11-15T16:34:59.169Z,35.73
2017-11-15T16:37:26.661Z,40.37
2017-11-15T16:39:54.153Z,38.53
2017-11-15T16:42:21.608Z,35.10
2017-11-15T16:44:49.053Z,37.30
2017-11-15T16:47:16.474Z,30.10
2017-11-15T16:49:44.761Z,26.83
2017-11-15T16:52:12.191Z,28.33
2017-11-15T16:54:39.674Z,26.63
2017-11-15T16:57:07.864Z,25.40
2017-11-15T16:59:35.302Z,27.53
2017-11-15T17:02:02.754Z,28.47
2017-11-15T17:04:30.995Z,24.83
2017-11-15T17:07:00.366Z,23.10
2017-11-15T17:09:27.832Z,25.80
2017-11-15T17:11:55.420Z,27.77
2017-11-15T17:14:22.936Z,27.10
2017-11-15T17:16:50.415Z,25.13
2017-11-15T17:19:17.891Z,26.47
2017-11-15T17:21:45.378Z,24.17
2017-11-15T17:24:13.668Z,24.90
2017-11-15T17:26:41.230Z,21.57
2017-11-15T17:29:10.397Z,24.33
2017-11-15T17:31:37.917Z,22.77
2017-11-15T17:34:05.514Z,22.33
2017-11-15T17:36:32.951Z,22.23
2017-11-15T17:39:00.439Z,22.77
2017-11-15T17:41:27.859Z,20.17
2017-11-15T17:43:55.356Z,22.13
2017-11-15T17:46:23.570Z,23.73
2017-11-15T17:48:51.017Z,22.97
2017-11-15T17:51:18.850Z,21.13
2017-11-15T17:53:47.271Z,26.80
2017-11-15T17:56:14.683Z,23.00
2017-11-15T17:58:42.898Z,21.43
2017-11-15T18:01:10.727Z,21.80
2017-11-15T18:03:38.918Z,21.20
2017-11-15T18:06:06.355Z,21.50
2017-11-15T18:08:34.577Z,23.13
2017-11-15T18:11:02.044Z,21.07
2017-11-15T18:13:29.486Z,27.20
2017-11-15T18:15:57.288Z,20.37
2017-11-15T18:18:24.718Z,21.33
2017-11-15T18:20:52.164Z,21.50
2017-11-15T18:23:19.608Z,22.57
2017-11-15T18:25:47.141Z,20.73
2017-11-15T18:28:15.337Z,21.53
2017-11-15T18:30:42.797Z,29.10
2017-11-15T18:33:10.986Z,28.63
2017-11-15T18:35:38.415Z,27.40
2017-11-15T18:38:06.618Z,26.00
2017-11-15T18:40:34.050Z,27.57
2017-11-15T18:43:02.248Z,27.77
2017-11-15T18:45:29.677Z,31.27
2017-11-15T18:47:57.879Z,29.13
2017-11-15T18:50:25.318Z,26.23
2017-11-15T18:52:52.758Z,26.70
2017-11-15T18:55:20.963Z,25.07
2017-11-15T18:57:48.402Z,21.80
2017-11-15T19:00:15.837Z,24.80
2017-11-15T19:02:43.279Z,27.90
2017-11-15T19:05:10.705Z,30.63
2017-11-15T19:07:38.142Z,34.83
2017-11-15T19:10:05.578Z,29.63
2017-11-15T19:12:33.785Z,28.70
2017-11-15T19:15:01.217Z,33.57
2017-11-15T19:17:28.657Z,34.87
2017-11-15T19:19:56.889Z,25.80
2017-11-15T19:22:24.316Z,27.07
2017-11-15T19:24:51.745Z,26.43
2017-11-15T19:27:19.946Z,26.03
2017-11-15T19:29:47.370Z,26.80
2017-11-15T19:32:15.333Z,27.00
2017-11-15T19:34:42.758Z,27.83
2017-11-15T19:37:10.194Z,24.47
2017-11-15T19:39:37.626Z,35.63
2017-11-15T19:42:06.869Z,27.57
2017-11-15T19:44:34.531Z,28.80
2017-11-15T19:49:44.840Z,29.87
2017-11-15T19:52:12.273Z,26.77
2017-11-15T19:54:39.729Z,20.97
2017-11-15T19:57:07.148Z,25.17
2017-11-15T19:59:35.268Z,24.33
2017-11-15T20:02:02.699Z,26.90
2017-11-15T20:04:30.552Z,26.43
2017-11-15T20:06:57.978Z,29.80
2017-11-15T20:09:26.581Z,27.30
2017-11-15T20:11:54.031Z,24.27
2017-11-15T20:14:22.243Z,25.73
2017-11-15T20:16:50.475Z,26.27
2017-11-15T20:19:18.701Z,24.57
2017-11-15T20:21:46.124Z,24.47
2017-11-15T20:24:13.557Z,27.03
2017-11-15T20:26:41.752Z,26.70
2017-11-15T20:29:09.598Z,28.77
2017-11-15T20:31:37.018Z,29.50
2017-11-15T20:34:05.239Z,32.77
2017-11-15T20:36:33.453Z,25.17
2017-11-15T20:39:00.897Z,24.83
2017-11-15T20:41:28.361Z,27.90
2017-11-15T20:43:55.842Z,26.10
2017-11-15T20:46:23.274Z,22.60
2017-11-15T20:48:50.741Z,21.30
2017-11-15T20:51:18.720Z,20.57
2017-11-15T20:53:47.957Z,20.20
2017-11-15T20:56:16.209Z,19.67
2017-11-15T20:58:44.470Z,18.17
2017-11-15T21:01:11.908Z,16.97
2017-11-15T21:03:40.149Z,16.37
2017-11-15T21:06:08.373Z,15.60
2017-11-15T21:08:35.796Z,15.90
2017-11-15T21:11:05.168Z,15.50
2017-11-15T21:13:35.266Z,14.13
2017-11-15T21:16:02.706Z,16.10
2017-11-15T21:18:30.138Z,15.63
2017-11-15T21:20:57.570Z,15.67
2017-11-15T21:23:26.301Z,15.30
2017-11-15T21:25:53.744Z,15.50
2017-11-15T21:28:21.729Z,15.97
2017-11-15T21:30:49.937Z,13.60
2017-11-15T21:33:17.981Z,13.17
2017-11-15T21:35:45.733Z,15.50
2017-11-15T21:38:13.165Z,14.90
2017-11-15T21:40:41.368Z,14.20
2017-11-15T21:43:09.390Z,14.10
2017-11-15T21:45:37.590Z,12.30
2017-11-15T21:48:05.477Z,14.37
2017-11-15T21:50:33.423Z,12.23
2017-11-15T21:53:01.422Z,13.87
2017-11-15T21:55:29.382Z,15.13
2017-11-15T21:57:56.821Z,12.20
2017-11-15T22:00:24.256Z,11.70
2017-11-15T22:02:52.465Z,11.37
2017-11-15T22:05:19.891Z,11.70
2017-11-15T22:07:48.117Z,11.23
2017-11-15T22:10:15.561Z,12.80
2017-11-15T22:12:43.010Z,12.10
2017-11-15T22:15:10.439Z,13.43
2017-11-15T22:17:38.630Z,13.07
2017-11-15T22:20:06.060Z,14.27
2017-11-15T22:22:34.259Z,10.40
2017-11-15T22:25:01.690Z,10.20
2017-11-15T22:27:30.407Z,10.30
2017-11-15T22:29:57.835Z,10.30
2017-11-15T22:32:26.039Z,9.87
2017-11-15T22:34:53.456Z,9.97
2017-11-15T22:37:22.508Z,10.30
2017-11-15T22:39:49.930Z,9.33
2017-11-15T22:42:17.362Z,8.07
2017-11-15T22:44:45.243Z,9.13
2017-11-15T22:47:13.986Z,9.13
2017-11-15T22:49:41.414Z,8.80
2017-11-15T22:52:08.850Z,9.10
2017-11-15T22:54:37.360Z,10.27
2017-11-15T22:57:04.820Z,10.10
2017-11-15T22:59:32.803Z,11.30
2017-11-15T23:02:00.812Z,9.77
2017-11-15T23:04:28.229Z,9.77
2017-11-15T23:06:56.427Z,10.07
2017-11-15T23:09:23.872Z,11.90
2017-11-15T23:11:51.686Z,12.00
2017-11-15T23:14:19.877Z,12.00
2017-11-15T23:16:47.694Z,13.03
2017-11-15T23:19:15.114Z,13.63
2017-11-15T23:21:45.079Z,12.57
2017-11-15T23:24:12.547Z,13.73
2017-11-15T23:26:40.737Z,13.13
2017-11-15T23:29:08.174Z,13.80
2017-11-15T23:31:36.371Z,12.83
2017-11-15T23:34:06.514Z,13.70
2017-11-15T23:36:33.941Z,11.80
2017-11-15T23:39:02.150Z,12.97
2017-11-15T23:41:29.576Z,12.30
2017-11-15T23:43:57.010Z,11.70
2017-11-15T23:46:25.208Z,12.07
2017-11-15T23:48:52.647Z,13.23
2017-11-15T23:51:20.856Z,13.30
2017-11-15T23:53:48.307Z,11.47
2017-11-15T23:56:15.722Z,11.80
2017-11-15T23:58:43.160Z,12.27
